Terminal Aerodrome Forecast
Issued by NWS

Home | Current Version | Previous Version | Text Only | Print | Product List | Glossary On
Versions: 1 2 3 4 5 6 7 8 9 10 11 12 13 14 15 16 17 18 19 20
000
FTUS43 KIND 270957 AAC
TAFBMG
TAF AMD
KBMG 270957Z 2710/2806 25006KT P6SM OVC010
     FM271200 26005KT 6SM BR OVC008
     FM271600 34004KT P6SM BKN040
     FM272200 VRB04KT P6SM SCT090
      AMD LTD TO CLD VIS AND WIND TIL 271300=

USA.gov is the U.S. government's official web portal to all federal, state and local government web resources and services.